Time;durP1;ratioP1;P1;durP2;ratioP2;P2;SDS_P1;SDS_P2;PMS_P1;PMS_P2;Temp;Humidity;BMP_temperature;BMP_pressure;BME280_temperature;BME280_humidity;BME280_pressure;Samples;Min_cycle;Max_cycle;Signal;HPM_P1;HPM_P2
2022/08/24 00:01:51;;;;;;;5.20;3.53;;;;;;;24.51;53.16;100301.72;4995095;28;20442;-71
2022/08/24 00:04:16;;;;;;;4.03;3.50;;;;;;;24.52;53.02;100295.53;4995213;28;20176;-72
2022/08/24 00:06:42;;;;;;;8.37;3.30;;;;;;;24.53;52.84;100311.59;5011658;28;20177;-71
2022/08/24 00:09:07;;;;;;;7.73;3.50;;;;;;;24.54;53.09;100303.75;4994023;28;20189;-67
2022/08/24 00:11:33;;;;;;;5.87;3.57;;;;;;;24.54;53.01;100313.22;4978203;28;20176;-70
2022/08/24 00:13:59;;;;;;;6.40;4.10;;;;;;;24.54;53.04;100307.44;5011635;28;20172;-68
2022/08/24 00:16:24;;;;;;;4.70;3.20;;;;;;;24.53;52.83;100305.81;4996888;28;20188;-71
2022/08/24 00:18:50;;;;;;;5.50;3.20;;;;;;;24.51;52.50;100308.31;4995246;28;20636;-70
2022/08/24 00:21:15;;;;;;;4.30;3.50;;;;;;;24.52;52.99;100309.94;5011596;28;20209;-68
2022/08/24 00:23:41;;;;;;;6.10;3.33;;;;;;;24.51;52.98;100311.19;4994748;28;20256;-71
2022/08/24 00:26:06;;;;;;;4.90;3.60;;;;;;;24.53;52.90;100313.69;4995606;28;20168;-67
2022/08/24 00:28:32;;;;;;;4.93;3.40;;;;;;;24.54;52.64;100306.66;5011546;28;20263;-70
2022/08/24 00:30:57;;;;;;;4.50;3.23;;;;;;;24.54;52.73;100304.56;5012030;28;20177;-70
2022/08/24 00:33:23;;;;;;;6.93;3.43;;;;;;;24.54;52.75;100304.56;4995231;28;20260;-68
2022/08/24 00:35:49;;;;;;;8.87;3.50;;;;;;;24.55;52.67;100314.91;5011265;28;20706;-72
2022/08/24 00:38:14;;;;;;;6.10;3.50;;;;;;;24.56;52.83;100312.81;5007702;28;20189;-67
2022/08/24 00:40:41;;;;;;;8.27;3.47;;;;;;;24.55;52.92;100306.22;4974719;28;20208;-71
2022/08/24 00:43:07;;;;;;;5.80;3.27;;;;;;;24.56;52.86;100304.16;4975824;28;20185;-67
2022/08/24 00:45:36;;;;;;;3.97;2.40;;;;;;;24.55;52.86;100309.13;4986428;28;20426;-67
2022/08/24 00:48:04;;;;;;;6.40;3.17;;;;;;;24.55;53.14;100312.00;5013376;28;20423;-70
2022/08/24 00:50:54;;;;;;;5.60;3.20;;;;;;;24.56;52.63;100319.41;4996447;28;20450;-67
2022/08/24 00:53:44;;;;;;;5.33;3.57;;;;;;;24.56;52.81;100316.53;5030524;28;20485;-68
2022/08/24 00:56:13;;;;;;;7.63;3.50;;;;;;;24.56;52.70;100310.75;4985325;28;20424;-68
2022/08/24 00:58:45;;;;;;;5.50;3.57;;;;;;;24.57;52.54;100312.41;4996890;28;20450;-70
2022/08/24 01:01:12;;;;;;;6.67;3.43;;;;;;;24.57;53.02;100318.16;5014446;28;20463;-70
2022/08/24 01:03:37;;;;;;;5.37;3.30;;;;;;;24.56;52.94;100312.81;4994310;28;20519;-70
2022/08/24 01:06:03;;;;;;;4.93;2.97;;;;;;;24.54;52.77;100319.00;5013721;28;20419;-67
2022/08/24 01:08:28;;;;;;;5.80;3.40;;;;;;;24.54;52.75;100318.19;4984241;28;20197;-70
2022/08/24 01:10:57;;;;;;;6.70;4.10;;;;;;;24.54;52.95;100310.34;5006800;28;20177;-71
2022/08/24 01:13:24;;;;;;;5.07;3.50;;;;;;;24.54;52.88;100319.00;4989973;28;20201;-67
2022/08/24 01:15:51;;;;;;;6.07;3.60;;;;;;;24.54;52.95;100318.19;4991433;28;20499;-70
2022/08/24 01:21:15;;;;;;;4.60;3.13;;;;;;;24.55;53.05;100320.66;4989354;28;20595;-71
2022/08/24 01:23:51;;;;;;;6.50;3.50;;;;;;;24.56;53.41;100338.78;5006888;28;20432;-69
2022/08/24 01:26:22;;;;;;;3.90;3.03;;;;;;;24.56;53.01;100336.75;4990505;28;20464;-70
2022/08/24 01:28:49;;;;;;;3.80;3.00;;;;;;;24.55;52.97;100335.09;4989657;28;20419;-71
2022/08/24 01:31:15;;;;;;;4.33;3.07;;;;;;;24.55;52.88;100332.22;4993940;28;20411;-70
2022/08/24 01:33:41;;;;;;;5.50;2.80;;;;;;;24.55;53.16;100335.09;4995879;28;20427;-70
2022/08/24 01:36:10;;;;;;;6.13;3.17;;;;;;;24.55;53.16;100337.16;5031412;28;20473;-68
2022/08/24 01:38:35;;;;;;;5.60;3.73;;;;;;;24.54;52.73;100336.31;5003904;28;20188;-67
2022/08/24 01:41:02;;;;;;;6.53;3.10;;;;;;;24.51;52.98;100337.19;5011171;28;20474;-68
2022/08/24 01:43:27;;;;;;;4.67;3.37;;;;;;;24.50;52.83;100335.53;5013393;28;20215;-71
2022/08/24 01:45:53;;;;;;;4.17;2.57;;;;;;;24.51;53.22;100337.19;5030522;28;20451;-69
2022/08/24 01:48:19;;;;;;;5.00;3.23;;;;;;;24.51;52.85;100331.41;5012733;28;20177;-71
2022/08/24 01:50:44;;;;;;;5.20;3.43;;;;;;;24.51;53.10;100325.63;5031011;28;20203;-70
2022/08/24 01:53:10;;;;;;;3.73;3.13;;;;;;;24.52;53.21;100332.22;4996761;28;20471;-70
2022/08/24 01:55:35;;;;;;;5.70;3.17;;;;;;;24.52;52.83;100327.28;5013234;28;20169;-72
2022/08/24 01:58:01;;;;;;;4.03;3.17;;;;;;;24.52;52.91;100326.44;4996038;28;20759;-67
2022/08/24 02:00:27;;;;;;;5.53;3.60;;;;;;;24.52;53.14;100327.28;4995055;28;20203;-71
2022/08/24 02:02:52;;;;;;;5.33;3.20;;;;;;;24.53;52.96;100331.00;4994844;28;20169;-71
2022/08/24 02:05:18;;;;;;;5.43;3.23;;;;;;;24.53;52.91;100319.44;5011615;28;20635;-70
2022/08/24 02:07:44;;;;;;;5.70;4.20;;;;;;;24.50;52.85;100324.00;5026234;28;20177;-67
2022/08/24 02:10:11;;;;;;;6.20;3.57;;;;;;;24.50;52.84;100331.81;4993134;28;20647;-67
2022/08/24 02:12:36;;;;;;;7.03;3.00;;;;;;;24.50;52.68;100329.78;4976871;28;20405;-67
2022/08/24 02:15:04;;;;;;;6.37;3.80;;;;;;;24.49;52.65;100325.22;4979399;28;20422;-70
2022/08/24 02:17:30;;;;;;;4.30;3.20;;;;;;;24.49;52.59;100330.19;4992636;28;20612;-67
2022/08/24 02:19:56;;;;;;;5.17;3.77;;;;;;;24.45;53.04;100327.31;5008988;28;20444;-68
2022/08/24 02:22:21;;;;;;;5.53;3.33;;;;;;;24.43;52.88;100324.03;4993207;28;20173;-67
2022/08/24 02:24:47;;;;;;;4.67;3.17;;;;;;;24.42;53.20;100322.38;4992695;28;20248;-70
2022/08/24 02:27:15;;;;;;;5.07;3.50;;;;;;;24.41;53.17;100329.41;5009455;28;20153;-70
2022/08/24 02:29:40;;;;;;;4.93;2.93;;;;;;;24.42;53.65;100345.47;5008410;28;20668;-71
2022/08/24 02:32:06;;;;;;;5.63;3.30;;;;;;;24.43;52.72;100346.31;5007703;28;20427;-72
2022/08/24 02:34:31;;;;;;;6.23;2.97;;;;;;;24.43;53.17;100346.31;4990727;28;20193;-70
2022/08/24 02:36:56;;;;;;;4.93;3.43;;;;;;;24.44;53.07;100337.19;4990945;28;20292;-67
2022/08/24 02:39:22;;;;;;;5.33;3.47;;;;;;;24.43;52.88;100340.53;5009045;28;20185;-67
2022/08/24 02:41:48;;;;;;;6.53;3.70;;;;;;;24.42;53.50;100354.13;4976433;28;20227;-71
2022/08/24 02:44:13;;;;;;;5.60;3.47;;;;;;;24.43;52.97;100346.31;4992708;28;20173;-71
2022/08/24 02:46:38;;;;;;;5.50;3.20;;;;;;;24.45;53.08;100344.66;4992097;28;20666;-71
2022/08/24 02:49:04;;;;;;;6.70;4.40;;;;;;;24.42;53.19;100336.81;4992715;28;20193;-71
2022/08/24 02:51:31;;;;;;;6.50;3.40;;;;;;;24.41;52.81;100338.06;4992707;28;20279;-68
2022/08/24 02:53:57;;;;;;;7.90;3.60;;;;;;;24.43;52.97;100346.31;5013550;28;20251;-68
2022/08/24 02:56:22;;;;;;;4.93;3.37;;;;;;;24.43;53.25;100335.56;5008454;28;20419;-67
2022/08/24 02:58:48;;;;;;;6.37;3.37;;;;;;;24.43;52.63;100341.34;4991010;28;20427;-67
2022/08/24 03:01:14;;;;;;;4.80;3.60;;;;;;;24.43;52.84;100343.41;4992395;28;20192;-71
2022/08/24 03:03:39;;;;;;;10.97;4.10;;;;;;;24.41;52.89;100338.06;4993052;28;20222;-71
2022/08/24 03:06:06;;;;;;;5.33;3.30;;;;;;;24.42;53.08;100345.47;5008875;28;20264;-68
2022/08/24 03:08:31;;;;;;;4.80;3.20;;;;;;;24.41;52.79;100340.94;4992602;28;20176;-70
2022/08/24 03:10:59;;;;;;;5.57;3.67;;;;;;;24.40;52.84;100345.09;4993660;28;20427;-70
2022/08/24 03:13:26;;;;;;;6.57;3.63;;;;;;;24.41;52.83;100343.00;5007240;28;20244;-67
2022/08/24 03:15:52;;;;;;;5.17;3.87;;;;;;;24.39;52.85;100340.53;4990981;28;20865;-68
2022/08/24 03:18:18;;;;;;;4.90;3.47;;;;;;;24.40;52.73;100335.59;5007317;28;20412;-68
2022/08/24 03:20:43;;;;;;;4.50;3.37;;;;;;;24.39;52.87;100328.97;4991317;28;20455;-68
2022/08/24 03:23:08;;;;;;;4.67;3.60;;;;;;;24.40;52.69;100335.59;5011538;28;20188;-68
2022/08/24 03:25:34;;;;;;;5.77;3.77;;;;;;;24.39;52.53;100328.97;4992302;28;20173;-70
2022/08/24 03:28:00;;;;;;;6.47;3.60;;;;;;;24.40;52.67;100329.81;4992565;28;20178;-71
2022/08/24 03:30:25;;;;;;;4.80;3.53;;;;;;;24.40;53.19;100329.81;5009415;28;20224;-67
2022/08/24 03:32:51;;;;;;;5.80;3.90;;;;;;;24.38;52.61;100333.13;4992376;28;20179;-67
2022/08/24 03:35:16;;;;;;;5.70;3.50;;;;;;;24.36;52.35;100324.06;4992784;28;20204;-67
2022/08/24 03:37:42;;;;;;;5.10;3.20;;;;;;;24.34;52.61;100335.19;4976707;28;20189;-71
2022/08/24 03:40:09;;;;;;;6.27;3.50;;;;;;;24.35;52.37;100331.09;5024604;28;20193;-68
2022/08/24 03:42:34;;;;;;;4.90;3.70;;;;;;;24.34;52.71;100338.06;5008378;28;20169;-70
2022/08/24 03:45:00;;;;;;;6.20;3.63;;;;;;;24.35;52.68;100331.09;4993427;28;20434;-67
2022/08/24 03:47:26;;;;;;;4.20;3.33;;;;;;;24.36;52.49;100334.78;5028737;28;20173;-67
2022/08/24 03:49:52;;;;;;;4.33;2.80;;;;;;;24.36;52.49;100341.38;5004589;28;20255;-67
2022/08/24 03:52:17;;;;;;;4.87;3.30;;;;;;;24.37;52.73;100345.06;5032920;28;22043;-67
2022/08/24 03:54:43;;;;;;;4.93;3.20;;;;;;;24.37;52.26;100347.97;4998837;28;20347;-68
2022/08/24 03:57:08;;;;;;;5.00;3.47;;;;;;;24.36;52.26;100346.31;5000119;28;20185;-72
2022/08/24 03:59:34;;;;;;;5.57;3.80;;;;;;;24.34;51.98;100346.75;4998209;28;20204;-72
2022/08/24 04:01:59;;;;;;;5.00;3.07;;;;;;;24.32;52.31;100339.75;4998828;28;20230;-67
2022/08/24 04:04:25;;;;;;;4.00;3.40;;;;;;;24.30;52.22;100339.34;5014910;28;20184;-70
2022/08/24 04:06:50;;;;;;;4.37;3.23;;;;;;;24.29;52.52;100344.28;4999117;28;20176;-70
2022/08/24 04:09:16;;;;;;;4.37;3.20;;;;;;;24.31;52.49;100343.88;4981987;28;20664;-71
2022/08/24 04:11:44;;;;;;;5.77;3.77;;;;;;;24.31;52.38;100343.88;4995064;28;20173;-69
2022/08/24 04:14:09;;;;;;;6.47;3.90;;;;;;;24.30;52.29;100343.06;4998019;28;20777;-67
2022/08/24 04:16:35;;;;;;;5.43;4.27;;;;;;;24.29;52.17;100340.59;5013119;28;20562;-70
2022/08/24 04:19:00;;;;;;;6.67;3.90;;;;;;;24.28;52.11;100342.66;5012856;28;20173;-70
2022/08/24 04:21:28;;;;;;;8.03;3.40;;;;;;;24.28;52.38;100336.88;5012558;28;20204;-68
2022/08/24 04:23:53;;;;;;;10.20;3.63;;;;;;;24.29;52.20;100338.50;4978704;28;20177;-69
2022/08/24 04:26:20;;;;;;;6.20;3.53;;;;;;;24.30;52.33;100336.47;4995538;28;20915;-70
2022/08/24 04:28:45;;;;;;;4.50;3.40;;;;;;;24.29;52.47;100335.63;4993600;28;20990;-71
2022/08/24 04:31:11;;;;;;;4.57;3.50;;;;;;;24.30;52.38;100343.06;4994030;28;20467;-69
2022/08/24 04:33:37;;;;;;;5.33;3.23;;;;;;;24.29;52.09;100344.28;5011677;28;20184;-68
2022/08/24 04:36:06;;;;;;;6.73;3.23;;;;;;;24.29;52.30;100347.16;5010217;28;20239;-67
2022/08/24 04:38:31;;;;;;;6.47;3.87;;;;;;;24.29;52.34;100344.28;4993365;28;20432;-68
2022/08/24 04:40:57;;;;;;;5.20;3.40;;;;;;;24.29;52.11;100358.72;4977981;28;20456;-67
2022/08/24 04:43:24;;;;;;;4.40;3.30;;;;;;;24.29;52.32;100355.03;4962167;28;20189;-68
2022/08/24 04:45:50;;;;;;;5.63;3.80;;;;;;;24.28;52.05;100357.06;4995473;28;20252;-70
2022/08/24 04:48:16;;;;;;;6.30;4.17;;;;;;;24.26;52.31;100359.56;4996136;28;20799;-71
2022/08/24 04:50:42;;;;;;;5.30;3.63;;;;;;;24.25;52.08;100357.94;4993356;28;20240;-67
2022/08/24 04:53:08;;;;;;;6.97;3.50;;;;;;;24.25;52.25;100357.94;4991620;28;20655;-70
2022/08/24 04:55:33;;;;;;;6.03;3.40;;;;;;;24.25;52.42;100357.94;4962736;28;20432;-67
2022/08/24 04:57:59;;;;;;;5.00;3.23;;;;;;;24.24;52.25;100362.03;5012452;28;20184;-67
2022/08/24 05:00:24;;;;;;;4.60;3.30;;;;;;;24.23;52.26;100366.16;4996706;28;20203;-67
2022/08/24 05:02:50;;;;;;;8.77;4.40;;;;;;;24.23;52.26;100359.59;4998028;28;20177;-70
2022/08/24 05:05:15;;;;;;;4.33;3.50;;;;;;;24.22;52.18;100375.22;5010494;28;20176;-67
2022/08/24 05:07:41;;;;;;;8.50;3.37;;;;;;;24.19;51.86;100378.97;5010629;28;20578;-70
2022/08/24 05:10:06;;;;;;;8.17;4.00;;;;;;;24.19;52.09;100376.09;5026618;28;20223;-71
2022/08/24 05:12:32;;;;;;;4.43;3.50;;;;;;;24.18;52.08;100378.13;5010658;28;20292;-67
2022/08/24 05:14:58;;;;;;;7.97;4.30;;;;;;;24.18;51.99;100375.25;5009965;28;20189;-71
2022/08/24 05:17:24;;;;;;;7.50;3.63;;;;;;;24.18;52.25;100383.91;4992637;28;20225;-67
2022/08/24 05:19:50;;;;;;;6.13;3.70;;;;;;;24.19;52.15;100381.84;4974964;28;20189;-71
2022/08/24 05:22:15;;;;;;;5.97;3.73;;;;;;;24.20;52.33;100384.34;4974394;28;20427;-68
2022/08/24 05:24:41;;;;;;;7.07;3.70;;;;;;;24.21;52.64;100385.13;4989981;28;20319;-70
2022/08/24 05:27:07;;;;;;;6.50;3.50;;;;;;;24.21;52.55;100388.84;4974158;28;20190;-68
2022/08/24 05:29:33;;;;;;;5.57;3.80;;;;;;;24.20;52.11;100384.34;4989656;28;20628;-68
2022/08/24 05:31:59;;;;;;;4.97;3.37;;;;;;;24.22;52.72;100392.53;4990891;28;20178;-68
2022/08/24 05:34:24;;;;;;;4.90;3.63;;;;;;;24.21;52.41;100385.13;4990118;28;20425;-71
2022/08/24 05:36:49;;;;;;;7.73;4.30;;;;;;;24.21;52.27;100388.03;4990480;28;20185;-69
2022/08/24 05:39:15;;;;;;;7.87;3.77;;;;;;;24.21;52.31;100385.97;4994085;28;20189;-71
2022/08/24 05:41:41;;;;;;;5.40;3.70;;;;;;;24.22;52.36;100396.28;5012376;28;20216;-69
2022/08/24 05:44:07;;;;;;;6.63;4.10;;;;;;;24.21;52.28;100391.75;5010884;28;20177;-68
2022/08/24 05:46:35;;;;;;;5.83;3.90;;;;;;;24.21;52.36;100391.75;5028259;28;20542;-67
2022/08/24 05:49:00;;;;;;;5.47;3.43;;;;;;;24.20;52.41;100390.09;4992195;28;20244;-68
2022/08/24 05:51:26;;;;;;;8.20;4.20;;;;;;;24.18;52.52;100386.78;5009250;28;20563;-68
2022/08/24 05:53:51;;;;;;;5.27;3.60;;;;;;;24.16;52.68;100388.44;4975625;28;20591;-70
2022/08/24 05:56:17;;;;;;;5.60;3.70;;;;;;;24.17;52.78;100393.81;4991681;28;20181;-68
2022/08/24 05:58:42;;;;;;;4.90;3.30;;;;;;;24.18;52.81;100395.44;4991644;28;20169;-69
2022/08/24 06:01:09;;;;;;;6.90;3.73;;;;;;;24.17;52.88;100390.94;4977308;28;20208;-69
2022/08/24 06:03:36;;;;;;;6.83;4.07;;;;;;;24.18;52.67;100389.69;4994873;28;20264;-71
2022/08/24 06:06:02;;;;;;;4.87;4.17;;;;;;;24.18;52.83;100392.56;4994039;28;20423;-70
2022/08/24 06:08:29;;;;;;;5.57;3.70;;;;;;;24.17;52.93;100396.69;4992831;28;20452;-68
2022/08/24 06:10:55;;;;;;;3.90;3.43;;;;;;;24.17;52.80;100401.63;5010194;28;20185;-72
2022/08/24 06:13:20;;;;;;;6.43;3.70;;;;;;;24.15;52.90;100396.31;4994416;28;20435;-70
2022/08/24 06:15:46;;;;;;;8.00;3.90;;;;;;;24.12;52.86;100402.91;5010687;28;20177;-71
2022/08/24 06:18:11;;;;;;;5.70;3.73;;;;;;;24.13;52.79;100404.53;5011373;28;20169;-71
2022/08/24 06:20:38;;;;;;;5.10;3.63;;;;;;;24.12;53.25;100407.81;4992486;28;20926;-67
2022/08/24 06:23:04;;;;;;;7.43;4.17;;;;;;;24.11;53.19;100404.13;4993382;28;20188;-71
2022/08/24 06:28:15;;;;;;;7.77;4.07;;;;;;;23.97;53.76;100400.44;4993278;28;20199;-69
2022/08/24 06:30:41;;;;;;;7.00;4.20;;;;;;;24.04;54.41;100403.34;4991948;28;20440;-72
2022/08/24 06:33:07;;;;;;;5.87;4.17;;;;;;;24.26;55.56;100402.03;4975733;28;20502;-67
2022/08/24 06:35:33;;;;;;;11.93;6.37;;;;;;;24.75;57.32;100399.78;4987980;28;20848;-68
2022/08/24 06:37:58;;;;;;;12.60;5.50;;;;;;;24.41;57.02;100401.56;4990583;28;20664;-68
2022/08/24 06:40:25;;;;;;;12.10;5.33;;;;;;;24.23;56.14;100406.56;4989233;28;20725;-68
2022/08/24 06:42:50;;;;;;;7.40;4.57;;;;;;;24.24;57.11;100410.28;4971814;28;20189;-68
2022/08/24 06:45:16;;;;;;;11.47;5.50;;;;;;;24.10;56.96;100404.56;4972968;28;20471;-69
2022/08/24 06:47:41;;;;;;;10.40;4.93;;;;;;;24.08;56.64;100407.03;4989874;28;20596;-69
2022/08/24 06:50:07;;;;;;;7.10;4.70;;;;;;;23.73;56.76;100407.06;5008264;28;20175;-68
2022/08/24 06:52:34;;;;;;;12.33;4.90;;;;;;;23.96;55.17;100402.53;5029939;28;20247;-72
2022/08/24 06:54:59;;;;;;;8.30;4.17;;;;;;;24.03;55.88;100407.47;4995915;28;20532;-71
2022/08/24 06:57:25;;;;;;;11.43;5.40;;;;;;;23.79;55.80;100402.53;5012240;28;20414;-71
2022/08/24 06:59:50;;;;;;;8.67;4.57;;;;;;;23.83;55.36;100412.00;5007328;28;20672;-71
2022/08/24 07:02:18;;;;;;;9.40;5.10;;;;;;;24.00;55.80;100416.94;4979871;28;20220;-71
2022/08/24 07:04:44;;;;;;;11.93;5.37;;;;;;;24.09;55.07;100423.09;4972782;28;20533;-68
2022/08/24 07:07:09;;;;;;;5.83;4.20;;;;;;;24.01;55.12;100421.47;4984844;28;20428;-72
2022/08/24 07:09:35;;;;;;;10.07;4.63;;;;;;;24.16;54.57;100423.06;4989747;28;20449;-71
2022/08/24 07:12:00;;;;;;;8.37;4.43;;;;;;;24.16;54.31;100423.91;4973578;28;20173;-74
2022/08/24 07:14:26;;;;;;;11.53;5.57;;;;;;;24.24;55.21;100431.28;4973279;28;20178;-72
2022/08/24 07:16:52;;;;;;;9.40;5.10;;;;;;;24.31;54.71;100431.28;5018980;28;20183;-67
2022/08/24 07:19:17;;;;;;;9.03;5.33;;;;;;;24.25;54.58;100429.22;4975541;28;20161;-72
2022/08/24 07:21:44;;;;;;;9.60;5.17;;;;;;;24.29;54.71;100435.81;4980789;28;20212;-68
2022/08/24 07:24:09;;;;;;;9.60;4.27;;;;;;;24.11;53.91;100441.66;4976342;28;20260;-67
2022/08/24 07:26:35;;;;;;;8.87;4.90;;;;;;;24.14;53.94;100435.03;4977138;28;20436;-73
2022/08/24 07:29:05;;;;;;;10.50;4.60;;;;;;;24.06;53.73;100432.56;4975090;28;20768;-70
2022/08/24 07:31:34;;;;;;;9.63;4.77;;;;;;;23.89;53.68;100425.59;4977380;28;20293;-73
2022/08/24 07:34:00;;;;;;;12.00;4.70;;;;;;;24.04;54.30;100435.06;4977581;28;20425;-73
2022/08/24 07:36:25;;;;;;;13.40;5.03;;;;;;;24.07;53.79;100428.44;5012200;28;20443;-67
2022/08/24 07:38:51;;;;;;;8.57;4.87;;;;;;;23.90;53.71;100433.03;5011452;28;20173;-73
2022/08/24 07:41:16;;;;;;;10.20;5.10;;;;;;;24.08;53.04;100430.13;4995175;28;20208;-67
2022/08/24 07:43:42;;;;;;;10.10;4.53;;;;;;;24.06;53.27;100430.53;4991385;28;20174;-73
2022/08/24 07:46:07;;;;;;;7.57;5.00;;;;;;;24.09;53.49;100434.66;4985664;28;20177;-73
2022/08/24 07:48:34;;;;;;;10.80;5.23;;;;;;;24.19;53.39;100436.69;5008778;28;20181;-67
2022/08/24 07:51:11;;;;;;;10.80;5.17;;;;;;;24.25;52.83;100426.34;4990818;28;20700;-73
2022/08/24 07:53:36;;;;;;;13.37;5.13;;;;;;;24.18;52.53;100424.31;4994300;28;20506;-67
2022/08/24 07:56:02;;;;;;;8.17;4.73;;;;;;;24.06;53.06;100429.69;4994124;28;21332;-73
2022/08/24 07:58:27;;;;;;;8.23;4.80;;;;;;;24.16;52.58;100423.91;4975293;28;20174;-73
2022/08/24 08:00:53;;;;;;;8.00;4.90;;;;;;;24.15;52.37;100430.91;4979532;28;20201;-73
2022/08/24 08:03:19;;;;;;;8.93;4.20;;;;;;;24.14;52.36;100434.22;4980592;28;20176;-73
2022/08/24 08:05:45;;;;;;;7.97;4.53;;;;;;;24.06;52.30;100429.69;4976043;28;20572;-71
2022/08/24 08:08:10;;;;;;;7.87;4.77;;;;;;;24.14;53.55;100434.22;5003683;28;20443;-68
2022/08/24 08:10:36;;;;;;;11.90;5.00;;;;;;;24.21;52.67;100426.38;4974712;28;20190;-72
2022/08/24 08:13:02;;;;;;;8.73;4.60;;;;;;;24.31;52.85;100433.34;4973798;28;20173;-71
2022/08/24 08:15:28;;;;;;;8.70;4.23;;;;;;;24.40;52.38;100434.56;4985653;28;20173;-68
2022/08/24 08:17:54;;;;;;;13.03;4.93;;;;;;;24.38;52.23;100434.13;4992530;28;20439;-68
2022/08/24 08:20:19;;;;;;;10.87;4.03;;;;;;;24.41;52.06;100439.09;4987759;28;20240;-71
2022/08/24 08:25:28;;;;;;;7.43;4.27;;;;;;;24.35;51.58;100432.09;4994546;28;20714;-67
2022/08/24 08:27:54;;;;;;;12.50;5.37;;;;;;;24.32;51.39;100427.16;5010786;28;20518;-71
2022/08/24 08:30:20;;;;;;;11.07;4.30;;;;;;;24.33;51.07;100425.09;4976943;28;20675;-67
2022/08/24 08:32:45;;;;;;;8.13;4.60;;;;;;;24.38;50.98;100422.59;4975102;28;20436;-71
2022/08/24 08:35:11;;;;;;;12.80;4.70;;;;;;;24.38;51.69;100431.25;4974169;28;20170;-66
2022/08/24 08:37:37;;;;;;;10.00;3.60;;;;;;;24.40;51.48;100428.78;4976223;28;20188;-73
2022/08/24 08:40:04;;;;;;;7.17;4.27;;;;;;;24.43;51.59;100430.00;4975812;28;20460;-67
2022/08/24 08:42:55;;;;;;;7.53;3.90;;;;;;;24.42;51.54;100429.19;4957423;28;20269;-68
2022/08/24 08:45:40;;;;;;;12.60;4.00;;;;;;;24.45;51.19;100427.50;5006317;28;20422;-69
2022/08/24 08:48:28;;;;;;;8.40;4.00;;;;;;;24.47;51.72;100422.13;4974853;28;20444;-71
2022/08/24 08:51:25;;;;;;;8.20;4.80;;;;;;;24.51;51.82;100423.78;4975294;28;20412;-68
2022/08/24 08:53:56;;;;;;;8.93;4.77;;;;;;;24.52;52.20;100421.69;4990942;28;20477;-70
2022/08/24 08:56:34;;;;;;;10.20;4.17;;;;;;;24.52;51.83;100419.66;4993239;28;20433;-71
2022/08/24 08:59:30;;;;;;;8.50;3.70;;;;;;;24.53;51.12;100427.06;5001014;28;20439;-77
2022/08/24 09:02:31;;;;;;;9.80;3.70;;;;;;;24.57;51.34;100421.28;4990607;28;20454;-69
2022/08/24 09:05:26;;;;;;;7.80;3.50;;;;;;;24.63;52.90;100417.56;5026326;28;20445;-71
2022/08/24 09:08:16;;;;;;;10.90;3.90;;;;;;;24.65;52.73;100420.88;4979301;28;20992;-70
2022/08/24 09:10:55;;;;;;;12.37;4.47;;;;;;;24.60;53.03;100421.31;5007978;28;20428;-70
2022/08/24 09:14:03;;;;;;;9.47;3.97;;;;;;;24.68;50.75;100416.31;5008051;28;20990;-69
2022/08/24 09:16:47;;;;;;;8.70;4.17;;;;;;;24.73;51.65;100407.22;4995608;28;20421;-69
2022/08/24 09:19:40;;;;;;;7.43;4.27;;;;;;;24.73;51.01;100408.03;5011979;28;20417;-70
2022/08/24 09:22:13;;;;;;;8.47;3.80;;;;;;;24.81;50.42;100405.91;4975234;28;20421;-70
2022/08/24 09:24:53;;;;;;;9.53;3.63;;;;;;;24.80;50.21;100402.22;4990645;28;20409;-69
2022/08/24 09:27:41;;;;;;;8.20;3.77;;;;;;;24.86;50.43;100411.25;5007095;28;20868;-69
2022/08/24 09:30:09;;;;;;;8.93;3.50;;;;;;;24.84;50.46;100402.19;5007345;28;20418;-70
2022/08/24 09:33:08;;;;;;;11.20;3.60;;;;;;;24.85;50.20;100406.72;4976085;28;20483;-70
2022/08/24 09:35:50;;;;;;;5.33;3.00;;;;;;;24.88;50.00;100400.94;4990443;28;20791;-70
2022/08/24 09:38:40;;;;;;;6.47;3.53;;;;;;;24.93;49.91;100400.47;4999791;28;20460;-70
2022/08/24 09:41:30;;;;;;;6.93;3.47;;;;;;;24.94;50.03;100399.22;4999320;28;20444;-69
2022/08/24 09:43:59;;;;;;;9.93;3.30;;;;;;;25.05;49.94;100394.22;4975622;28;20993;-70
2022/08/24 09:46:58;;;;;;;6.60;3.27;;;;;;;25.07;49.34;100394.63;5011834;28;20431;-71
2022/08/24 09:50:01;;;;;;;10.73;3.40;;;;;;;25.07;49.18;100388.84;5013104;28;20399;-70
2022/08/24 09:52:35;;;;;;;10.70;3.20;;;;;;;25.08;48.99;100387.59;5012773;28;21008;-69
2022/08/24 09:55:21;;;;;;;7.77;3.33;;;;;;;25.18;48.66;100388.78;5015840;28;20822;-72
2022/08/24 09:58:11;;;;;;;8.30;3.40;;;;;;;25.19;48.25;100378.84;4986986;28;20450;-72
2022/08/24 10:00:54;;;;;;;15.00;3.73;;;;;;;25.25;48.81;100372.22;4999523;28;20475;-70
2022/08/24 10:03:44;;;;;;;8.70;3.60;;;;;;;25.29;48.35;100375.88;4995539;28;20427;-70
2022/08/24 10:06:18;;;;;;;9.00;3.57;;;;;;;25.27;48.41;100366.00;5033683;28;20481;-71
2022/08/24 10:09:10;;;;;;;10.27;3.33;;;;;;;25.30;48.14;100363.09;5002288;28;20431;-69
2022/08/24 10:11:42;;;;;;;7.70;3.20;;;;;;;25.36;47.81;100364.28;4981006;28;20424;-71
2022/08/24 10:14:15;;;;;;;5.97;3.27;;;;;;;25.37;47.56;100365.09;4995088;28;20890;-71
2022/08/24 10:16:59;;;;;;;8.70;3.20;;;;;;;25.33;48.19;100355.66;4994015;28;20491;-69
2022/08/24 10:19:46;;;;;;;6.50;2.80;;;;;;;25.54;47.17;100346.78;5011103;28;20446;-69
2022/08/24 10:22:36;;;;;;;6.90;2.80;;;;;;;25.45;47.05;100347.28;5014838;28;20823;-68
2022/08/24 10:25:14;;;;;;;9.13;3.33;;;;;;;25.58;46.42;100345.47;5009045;28;20856;-69
2022/08/24 10:28:09;;;;;;;7.50;3.23;;;;;;;25.56;46.86;100336.44;5012768;28;20518;-70
2022/08/24 10:31:03;;;;;;;6.23;3.33;;;;;;;25.64;46.48;100332.19;5009219;28;20428;-69
2022/08/24 10:33:51;;;;;;;8.37;2.90;;;;;;;25.74;46.41;100330.47;4979862;28;20436;-69
2022/08/24 10:36:43;;;;;;;8.47;2.83;;;;;;;25.68;46.31;100330.09;5011363;28;20431;-71
2022/08/24 10:39:50;;;;;;;4.93;2.60;;;;;;;25.75;45.57;100337.88;5010450;28;21449;-72
2022/08/24 10:46:00;;;;;;;5.13;2.37;;;;;;;25.70;43.74;100321.78;5013815;28;20442;-69
2022/08/24 10:48:29;;;;;;;12.53;3.17;;;;;;;25.78;43.54;100328.31;4994610;28;20432;-70
2022/08/24 10:51:28;;;;;;;4.90;2.77;;;;;;;25.71;44.03;100325.53;5011783;28;20427;-72
2022/08/24 10:53:54;;;;;;;8.20;3.17;;;;;;;25.66;44.71;100323.94;4991421;28;21128;-70
2022/08/24 10:56:46;;;;;;;5.63;2.27;;;;;;;25.73;43.91;100312.28;4994269;28;20420;-71
2022/08/24 10:59:14;;;;;;;8.30;2.90;;;;;;;25.81;44.31;100313.00;4974705;28;20224;-70
2022/08/24 11:01:39;;;;;;;5.80;2.87;;;;;;;25.88;44.11;100301.34;4992643;28;20536;-70
2022/08/24 11:04:09;;;;;;;6.20;2.70;;;;;;;25.91;43.21;100301.38;4993526;28;20924;-70
2022/08/24 11:06:37;;;;;;;4.80;2.60;;;;;;;26.02;41.90;100298.31;5006892;28;20243;-72
2022/08/24 11:09:13;;;;;;;4.37;2.47;;;;;;;26.03;42.10;100300.78;4982917;28;20447;-72
2022/08/24 11:11:40;;;;;;;4.20;2.33;;;;;;;26.14;41.25;100298.56;5001033;28;20525;-68
2022/08/24 11:14:19;;;;;;;5.30;2.87;;;;;;;26.18;41.72;100287.78;4988886;28;20669;-70
2022/08/24 11:16:45;;;;;;;4.50;2.63;;;;;;;26.10;41.72;100300.69;5015975;28;20416;-70
2022/08/24 11:19:32;;;;;;;4.03;2.47;;;;;;;26.17;41.47;100280.38;5036290;28;20423;-71
2022/08/24 11:22:02;;;;;;;5.40;2.37;;;;;;;26.38;40.83;100277.16;5019942;28;20216;-70
2022/08/24 11:24:42;;;;;;;4.90;2.40;;;;;;;26.33;40.77;100286.34;4997504;28;20419;-70
2022/08/24 11:27:21;;;;;;;7.00;2.90;;;;;;;26.15;41.35;100285.75;4997865;28;20472;-70
2022/08/24 11:29:52;;;;;;;7.80;2.43;;;;;;;26.09;41.46;100278.81;4999033;28;20432;-69
2022/08/24 11:32:40;;;;;;;9.80;3.27;;;;;;;26.35;40.89;100289.59;5013210;28;20518;-69
2022/08/24 11:35:05;;;;;;;6.57;2.43;;;;;;;26.40;40.33;100289.13;5013687;28;20446;-70
2022/08/24 11:37:33;;;;;;;6.50;2.40;;;;;;;26.31;40.89;100285.97;5037363;28;20411;-70
2022/08/24 11:39:58;;;;;;;12.93;2.83;;;;;;;26.49;39.62;100286.50;4991828;28;20193;-70
2022/08/24 11:42:36;;;;;;;4.37;2.60;;;;;;;26.42;39.36;100280.84;4997319;28;20420;-72
2022/08/24 11:45:32;;;;;;;11.33;2.67;;;;;;;26.45;39.64;100268.38;4992903;28;20259;-70
2022/08/24 11:48:20;;;;;;;5.47;2.53;;;;;;;26.37;39.76;100281.31;5007527;28;20509;-69
2022/08/24 11:51:11;;;;;;;8.40;2.67;;;;;;;26.37;39.81;100284.22;5019270;28;20400;-71